• Join FlightAware (Why Join?)
  • Login
  • US Flag 
02:48AM EDT


 

Airport Tracker/Info


-or-


 

Live Flight TrackerFlight Track Log ✈ N53361 ✈ 16-Aug-2013 ✈ KRHP - KRYY

Flight Track Log - Related Links

Times and Time Zones

All times are in EDT time to prevent confusion due to time zone crossing. See the N53361 flight status page for this flight to view local times or setup timezone preferences in your user account.

Time Position Orientation Groundspeed Altitude Reporting Facility
EDT Latitude Longitude Course Direction KTS MPH feet Rate Location/Type
03:50PM 35.1111 -83.9981 202° Southwest 112 129 4,900  Level Atlanta Center
03:51PM 35.0881 -84.0158 212° Southwest 112 129 5,300 420 Climbing Atlanta Center
03:52PM 35.0672 -84.0361 219° Southwest 106 122 5,800 420 Climbing Atlanta Center
03:53PM 35.0444 -84.0514 209° Southwest 106 122 6,200 360 Climbing Atlanta Center
03:54PM 35.0464 -83.9422 206° Southwest  Level FlightAware Approximate
03:54PM 35.0236 -84.0717 219° Southwest 106 122 6,600  Level Atlanta Center
03:55PM 35.0227 -83.9553 202° Southwest  Level FlightAware Approximate
03:55PM 35.0025 -84.0869 211° Southwest 106 122 7,000  Level Atlanta Center
03:56PM 34.9985 -83.9674 202° Southwest  Level FlightAware Approximate
03:56PM 34.9775 -84.0969 198° South 101 116 7,400  Level Atlanta Center
03:57PM 34.9525 -84.1097 203° Southwest 96 110 7,700 300 Climbing Atlanta Center
03:58PM 34.9294 -84.1197 200° South 91 105 8,100 300 Climbing Atlanta Center
03:59PM 34.9067 -84.1300 200° South 91 105 8,400 300 Climbing Atlanta Center
04:00PM 34.8836 -84.1425 204° Southwest 91 105 8,700 240 Climbing Atlanta Center
04:01PM 34.8606 -84.1553 204° Southwest 91 105 8,900 60 Climbing Atlanta Center
04:02PM 34.8378 -84.1728 212° Southwest 96 110 8,900  Level Atlanta Center
04:03PM 34.8128 -84.1906 210° Southwest 101 116 8,900  Level Atlanta Center
04:04PM 34.7875 -84.2031 202° Southwest 101 116 8,900  Level Atlanta Center
04:05PM 34.7583 -84.2158 200° South 101 116 8,900  Level Atlanta Center
04:06PM 34.7333 -84.2283 202° Southwest 101 116 9,000  Climbing Atlanta Center
04:07PM 34.7042 -84.2383 196° South 101 116 8,900  Descending Atlanta Center
04:08PM 34.6769 -84.2508 201° Southwest 110 127 9,000  Climbing Atlanta Center
04:09PM 34.6519 -84.2661 207° Southwest 110 127 8,900 -60 Descending Atlanta Center
04:10PM 34.6247 -84.2811 204° Southwest 110 127 8,900 -120 Level Atlanta Center
04:11PM 34.5997 -84.2961 206° Southwest 110 127 8,700 -360 Descending Atlanta Center
04:12PM 34.5767 -84.3164 216° Southwest 110 127 8,200 -420 Descending Atlanta Center
04:13PM 34.5475 -84.3214 188° South 105 121 7,900 -180 Descending Atlanta Center
04:14PM 34.5181 -84.3311 195° South 105 121 7,900  Level Atlanta Center
04:15PM 34.4931 -84.3436 202° Southwest 105 121 7,900  Level Atlanta Center
04:16PM 34.4722 -84.3614 215° Southwest 105 121 7,900  Level Atlanta Center
04:17PM 34.4450 -84.3764 204° Southwest 105 121 7,900  Level Atlanta Center
04:18PM 34.4200 -84.3864 198° South 105 121 8,000  Climbing Atlanta Center
04:19PM 34.3928 -84.4014 204° Southwest 111 128 8,000 -60 Level Atlanta Center
04:20PM 34.3678 -84.4139 202° Southwest 111 128 7,900  Descending Atlanta Center
04:21PM 34.3383 -84.4286 202° Southwest 111 128 8,000  Climbing Atlanta Center
04:22PM 34.3133 -84.4436 206° Southwest 106 122 7,900 -60 Descending Atlanta Center
04:23PM 34.2944 -84.4661 225° Southwest 106 122 7,900 -300 Level Atlanta Center
04:24PM 34.2817 -84.4989 245° Southwest 106 122 7,400 -540 Descending Atlanta Center
04:25PM 34.2650 -84.5289 236° Southwest 116 133 6,900 -540 Descending Atlanta Center
04:26PM 34.2461 -84.5614 235° Southwest 121 139 6,400 -480 Descending Atlanta Center
04:27PM 34.2292 -84.5914 236° Southwest 121 139 6,000 -420 Descending Atlanta Center
04:29PM 34.2000 -84.6333 230° Southwest 115 132 5,400 -420 Descending Atlanta TRACON
04:30PM 34.1833 -84.6667 239° Southwest 116 133 5,000 -240 Descending Atlanta TRACON
04:31PM 34.1667 -84.7000 239° Southwest 113 130 4,900 -60 Descending Atlanta TRACON
04:32PM 34.1500 -84.7333 239° Southwest 110 127 4,900 -300 Level Atlanta TRACON
04:33PM 34.1333 -84.7667 239° Southwest 116 133 4,400 -540 Descending Atlanta TRACON
04:34PM 34.1167 -84.8000 239° Southwest 116 133 3,900 -600 Descending Atlanta TRACON
04:35PM 34.1000 -84.8167 220° Southwest 117 135 3,300 -240 Descending Atlanta TRACON
04:39PM 34.0000 -84.8333 188° South 93 107 2,900 -180 Descending Atlanta TRACON
04:40PM 34.0000 -84.8000 90° East 87 100 2,600 -180 Descending Atlanta TRACON
04:41PM 34.0167 -84.7667 59° Northeast 85 98 2,600  Level Atlanta TRACON
04:43PM 34.0167 -84.7167 90° East 89 102 2,600  Level Atlanta TRACON
04:44PM 34.0167 -84.6833 90° East 69 79 2,600 -240 Level Atlanta TRACON
04:45PM 34.0167 -84.6667 90° East 75 86 2,100 -540 Descending Atlanta TRACON